Terminal Aerodrome Forecast
Issued by NWS Charleston, WV

Current Version | Previous Version | Graphics & Text | Print | Product List | Glossary On
Versions: 1 2 3 4 5 6 7 8 9 10 11 12 13 14 15 16 17 18 19 20 21 22 23 24 25 26 27 28
000
FTUS41 KRLX 150900 AAA
TAFBKW
TAF AMD
KBKW 150919Z 1509/1606 00000KT 1SM BR OVC002
      TEMPO 1509/1512 3SM BR
     FM151300 00000KT 4SM BR BKN008
     FM151400 00000KT P6SM SCT015
     FM151800 27006KT P6SM SCT030
     FM151900 27006KT P6SM BKN030=

USA.gov is the U.S. government's official web portal to all federal, state and local government web resources and services.